Atlantic City, NJ

1:53 PM EST on March 04, 2015 (GMT -0500)
APRSWXNET Cape May Court House NJ US | Change Station
CLOSE
Current Station
Personal Weather Station
Location: Absecon, NJ
Elevation: 9 ft
Nearby Weather Stations
Active Advisory: Winter Storm Warning Active Notice: Public Information Statement

Elev 9 ft 39.40 °N, 74.47 °W | Updated 19 minutes ago

Overcast
Overcast
45 °F
Feels Like 45 °F
N
0
Wind Variable Wind from SE
Gusts 0.0 mph

Today
High -- | Low -- °F
--% Chance of Precip.
Yesterday
High -- | Low -- °F
Precip. -- in
6:26 AM 5:53 PM
Waxing Gibbous, 99% visible
Pressure 29.87 in
Visibility 6.0 miles
Clouds Mostly Cloudy 600 ft
Overcast 9500 ft
Windchill 45 °F
Dew Point 45 °F
Humidity 99%
Rainfall 0.09 in
Snow Depth Not available.
UV 2 out of 12
Pollen .60 out of 12
Air Quality Not available.
Flu Activity Not available.
SPECI KACY 041842Z 22004KT 6SM BR BKN006 OVC095 07/06 A2987 RMK AO2 T00720061

More Conditions Fewer Conditions

Pressure 29.87 in
Visibility 6.0 miles
Clouds Mostly Cloudy 600 ft
Overcast 9500 ft
Windchill 45 °F
Dew Point 45 °F
Humidity 99%
Rainfall 0.09 in
Snow Depth Not available.
UV 2 out of 12
Pollen .60 out of 12
Air Quality Not available.
Flu Activity Not available.
SPECI KACY 041842Z 22004KT 6SM BR BKN006 OVC095 07/06 A2987 RMK AO2 T00720061

More Conditions Fewer Conditions

10-Day Weather Forecast

Almanac

Astronomy

Mar. 04, 2015 Rise Set
Actual Time
Civil Twilight
Nautical Twilight
Astronomical Twilight
Moon
Length of Visible Light
Length of Day
Tomorrow will be .
, % of the Moon is Illuminated

Today's Extremes

State Highs State Lows

Community

WunderPhotos

Upload Photos

1,802,536 photos uploaded!

WunderBlogs® & News

Nearby

Air Quality

  Air Quality AQ Index Pollutant
Not available.

Snow Depth

Station Depth Elevation

Earthquake Activity

City Distance Mag. Time & Date
Minimum magnitude displayed is 2.5.

Coastal Water Temperatures

Place Temperature

Nearby Weather Stations

Winter Storm Warning
Statement as of 8:34 AM EST on March 04, 2015

... Winter Storm Warning remains in effect from 11 PM this evening
to 7 PM EST Thursday...

* hazard types... a steady accumulating snow... possibly heavy at
times... from late tonight into Thursday.

* Snow accumulations... 6 to 10 inches.

* Timing... rain will change to snow overnight and the snow will
continue into Thursday.

* Impacts... widespread and substantial impacts on travel are
expected for late tonight and Thursday.

Precautionary/preparedness actions...

This Winter Storm Warning means that significant amounts of snow
are expected. The snow will make travel very hazardous or
impossible.